sensor_id;sensor_type;location;lat;lon;timestamp;P1;durP1;ratioP1;P2;durP2;ratioP2
9449;SDS011;4763;48.370;10.874;2023-12-29T00:02:02;3.83;;;2.67;;
9449;SDS011;4763;48.370;10.874;2023-12-29T00:04:49;5.20;;;2.93;;
9449;SDS011;4763;48.370;10.874;2023-12-29T00:07:36;4.63;;;3.03;;
9449;SDS011;4763;48.370;10.874;2023-12-29T00:10:25;3.13;;;2.50;;
9449;SDS011;4763;48.370;10.874;2023-12-29T00:13:12;3.73;;;2.70;;
9449;SDS011;4763;48.370;10.874;2023-12-29T00:15:59;3.73;;;2.30;;
9449;SDS011;4763;48.370;10.874;2023-12-29T00:18:46;4.33;;;2.80;;
9449;SDS011;4763;48.370;10.874;2023-12-29T00:21:33;5.23;;;2.50;;
9449;SDS011;4763;48.370;10.874;2023-12-29T00:24:20;3.50;;;2.53;;
9449;SDS011;4763;48.370;10.874;2023-12-29T00:27:08;6.57;;;3.00;;
9449;SDS011;4763;48.370;10.874;2023-12-29T00:29:55;3.00;;;2.40;;
9449;SDS011;4763;48.370;10.874;2023-12-29T00:32:42;2.83;;;2.40;;
9449;SDS011;4763;48.370;10.874;2023-12-29T00:35:29;3.50;;;2.57;;
9449;SDS011;4763;48.370;10.874;2023-12-29T00:38:16;3.80;;;2.70;;
9449;SDS011;4763;48.370;10.874;2023-12-29T00:41:04;3.13;;;2.60;;
9449;SDS011;4763;48.370;10.874;2023-12-29T00:43:53;3.13;;;2.50;;
9449;SDS011;4763;48.370;10.874;2023-12-29T00:46:40;3.53;;;2.73;;
9449;SDS011;4763;48.370;10.874;2023-12-29T00:49:27;4.97;;;2.33;;
9449;SDS011;4763;48.370;10.874;2023-12-29T00:52:14;3.90;;;2.50;;
9449;SDS011;4763;48.370;10.874;2023-12-29T00:55:02;4.67;;;2.50;;
9449;SDS011;4763;48.370;10.874;2023-12-29T00:57:50;2.53;;;2.20;;
9449;SDS011;4763;48.370;10.874;2023-12-29T01:00:39;2.60;;;2.03;;
9449;SDS011;4763;48.370;10.874;2023-12-29T01:03:26;3.87;;;2.80;;
9449;SDS011;4763;48.370;10.874;2023-12-29T01:06:13;3.73;;;3.20;;
9449;SDS011;4763;48.370;10.874;2023-12-29T01:09:00;3.73;;;2.50;;
9449;SDS011;4763;48.370;10.874;2023-12-29T01:11:47;4.60;;;2.73;;
9449;SDS011;4763;48.370;10.874;2023-12-29T01:14:34;5.63;;;2.73;;
9449;SDS011;4763;48.370;10.874;2023-12-29T01:17:23;3.87;;;2.80;;
9449;SDS011;4763;48.370;10.874;2023-12-29T01:20:13;3.60;;;2.83;;
9449;SDS011;4763;48.370;10.874;2023-12-29T01:23:00;3.40;;;2.50;;
9449;SDS011;4763;48.370;10.874;2023-12-29T01:25:47;3.73;;;2.90;;
9449;SDS011;4763;48.370;10.874;2023-12-29T01:28:34;4.90;;;3.00;;
9449;SDS011;4763;48.370;10.874;2023-12-29T01:31:21;2.73;;;2.50;;
9449;SDS011;4763;48.370;10.874;2023-12-29T01:34:10;3.67;;;2.63;;
9449;SDS011;4763;48.370;10.874;2023-12-29T01:36:57;4.03;;;3.00;;
9449;SDS011;4763;48.370;10.874;2023-12-29T01:39:44;5.30;;;2.63;;
9449;SDS011;4763;48.370;10.874;2023-12-29T01:42:31;4.67;;;2.90;;
9449;SDS011;4763;48.370;10.874;2023-12-29T01:45:22;4.90;;;2.83;;
9449;SDS011;4763;48.370;10.874;2023-12-29T01:48:11;3.37;;;2.70;;
9449;SDS011;4763;48.370;10.874;2023-12-29T01:51:00;3.43;;;2.70;;
9449;SDS011;4763;48.370;10.874;2023-12-29T01:53:48;3.90;;;2.80;;
9449;SDS011;4763;48.370;10.874;2023-12-29T01:56:36;4.23;;;3.17;;
9449;SDS011;4763;48.370;10.874;2023-12-29T01:59:23;4.20;;;3.00;;
9449;SDS011;4763;48.370;10.874;2023-12-29T02:02:11;4.07;;;3.00;;
9449;SDS011;4763;48.370;10.874;2023-12-29T02:05:00;3.33;;;2.77;;
9449;SDS011;4763;48.370;10.874;2023-12-29T02:07:51;5.70;;;2.77;;
9449;SDS011;4763;48.370;10.874;2023-12-29T02:10:39;4.10;;;3.10;;
9449;SDS011;4763;48.370;10.874;2023-12-29T02:13:26;4.07;;;2.70;;
9449;SDS011;4763;48.370;10.874;2023-12-29T02:16:15;4.93;;;2.63;;
9449;SDS011;4763;48.370;10.874;2023-12-29T02:19:11;3.30;;;2.57;;
9449;SDS011;4763;48.370;10.874;2023-12-29T02:22:08;4.00;;;2.73;;
9449;SDS011;4763;48.370;10.874;2023-12-29T02:24:56;5.47;;;2.70;;
9449;SDS011;4763;48.370;10.874;2023-12-29T02:27:46;3.40;;;2.77;;
9449;SDS011;4763;48.370;10.874;2023-12-29T02:30:38;6.03;;;2.87;;
9449;SDS011;4763;48.370;10.874;2023-12-29T02:33:32;3.80;;;2.73;;
9449;SDS011;4763;48.370;10.874;2023-12-29T02:36:23;4.43;;;3.00;;
9449;SDS011;4763;48.370;10.874;2023-12-29T02:39:10;3.80;;;2.83;;
9449;SDS011;4763;48.370;10.874;2023-12-29T02:41:59;3.63;;;2.80;;
9449;SDS011;4763;48.370;10.874;2023-12-29T02:44:46;3.83;;;3.10;;
9449;SDS011;4763;48.370;10.874;2023-12-29T02:47:33;3.07;;;2.53;;
9449;SDS011;4763;48.370;10.874;2023-12-29T02:50:20;4.50;;;2.67;;
9449;SDS011;4763;48.370;10.874;2023-12-29T02:53:07;3.40;;;2.80;;
9449;SDS011;4763;48.370;10.874;2023-12-29T02:55:55;4.57;;;2.60;;
9449;SDS011;4763;48.370;10.874;2023-12-29T02:58:43;4.17;;;2.70;;
9449;SDS011;4763;48.370;10.874;2023-12-29T03:01:31;4.50;;;2.93;;
9449;SDS011;4763;48.370;10.874;2023-12-29T03:04:18;3.90;;;2.60;;
9449;SDS011;4763;48.370;10.874;2023-12-29T03:07:05;3.03;;;2.23;;
9449;SDS011;4763;48.370;10.874;2023-12-29T03:09:52;3.23;;;2.80;;
9449;SDS011;4763;48.370;10.874;2023-12-29T03:12:39;2.97;;;2.63;;
9449;SDS011;4763;48.370;10.874;2023-12-29T03:15:27;4.27;;;2.83;;
9449;SDS011;4763;48.370;10.874;2023-12-29T03:18:14;3.67;;;2.90;;
9449;SDS011;4763;48.370;10.874;2023-12-29T03:21:02;3.27;;;2.43;;
9449;SDS011;4763;48.370;10.874;2023-12-29T03:23:49;3.77;;;2.73;;
9449;SDS011;4763;48.370;10.874;2023-12-29T03:26:36;6.10;;;2.90;;
9449;SDS011;4763;48.370;10.874;2023-12-29T03:29:23;4.03;;;2.77;;
9449;SDS011;4763;48.370;10.874;2023-12-29T03:32:11;3.60;;;2.63;;
9449;SDS011;4763;48.370;10.874;2023-12-29T03:34:59;3.47;;;2.80;;
9449;SDS011;4763;48.370;10.874;2023-12-29T03:37:47;3.57;;;2.70;;
9449;SDS011;4763;48.370;10.874;2023-12-29T03:40:34;4.20;;;2.77;;
9449;SDS011;4763;48.370;10.874;2023-12-29T03:43:21;3.80;;;2.53;;
9449;SDS011;4763;48.370;10.874;2023-12-29T03:46:14;3.00;;;2.60;;
9449;SDS011;4763;48.370;10.874;2023-12-29T03:49:04;3.90;;;2.83;;
9449;SDS011;4763;48.370;10.874;2023-12-29T03:51:51;4.80;;;3.10;;
9449;SDS011;4763;48.370;10.874;2023-12-29T03:54:38;3.20;;;2.60;;
9449;SDS011;4763;48.370;10.874;2023-12-29T03:57:25;3.97;;;3.27;;
9449;SDS011;4763;48.370;10.874;2023-12-29T04:00:12;3.47;;;2.90;;
9449;SDS011;4763;48.370;10.874;2023-12-29T04:03:00;3.47;;;2.47;;
9449;SDS011;4763;48.370;10.874;2023-12-29T04:05:49;4.83;;;2.80;;
9449;SDS011;4763;48.370;10.874;2023-12-29T04:08:36;5.47;;;2.87;;
9449;SDS011;4763;48.370;10.874;2023-12-29T04:11:24;3.60;;;2.93;;
9449;SDS011;4763;48.370;10.874;2023-12-29T04:14:11;5.73;;;2.67;;
9449;SDS011;4763;48.370;10.874;2023-12-29T04:16:59;2.90;;;2.43;;
9449;SDS011;4763;48.370;10.874;2023-12-29T04:19:48;5.27;;;3.00;;
9449;SDS011;4763;48.370;10.874;2023-12-29T04:22:37;3.90;;;2.53;;
9449;SDS011;4763;48.370;10.874;2023-12-29T04:25:24;4.43;;;2.70;;
9449;SDS011;4763;48.370;10.874;2023-12-29T04:28:11;3.43;;;3.07;;
9449;SDS011;4763;48.370;10.874;2023-12-29T04:30:58;3.40;;;2.60;;
9449;SDS011;4763;48.370;10.874;2023-12-29T04:33:45;5.47;;;2.50;;
9449;SDS011;4763;48.370;10.874;2023-12-29T04:36:32;4.50;;;2.67;;
9449;SDS011;4763;48.370;10.874;2023-12-29T04:39:20;4.23;;;2.30;;
9449;SDS011;4763;48.370;10.874;2023-12-29T04:42:07;5.57;;;2.87;;
9449;SDS011;4763;48.370;10.874;2023-12-29T04:44:54;3.73;;;2.73;;
9449;SDS011;4763;48.370;10.874;2023-12-29T04:47:41;3.13;;;2.50;;
9449;SDS011;4763;48.370;10.874;2023-12-29T04:50:28;2.87;;;2.60;;
9449;SDS011;4763;48.370;10.874;2023-12-29T04:53:15;2.70;;;2.30;;
9449;SDS011;4763;48.370;10.874;2023-12-29T04:56:04;4.00;;;2.73;;
9449;SDS011;4763;48.370;10.874;2023-12-29T04:58:52;3.97;;;2.37;;
9449;SDS011;4763;48.370;10.874;2023-12-29T05:01:39;4.13;;;2.77;;
9449;SDS011;4763;48.370;10.874;2023-12-29T05:04:26;3.50;;;2.67;;
9449;SDS011;4763;48.370;10.874;2023-12-29T05:07:13;3.17;;;2.40;;
9449;SDS011;4763;48.370;10.874;2023-12-29T05:10:00;3.83;;;2.57;;
9449;SDS011;4763;48.370;10.874;2023-12-29T05:12:48;3.93;;;2.87;;
9449;SDS011;4763;48.370;10.874;2023-12-29T05:15:35;3.27;;;2.40;;
9449;SDS011;4763;48.370;10.874;2023-12-29T05:18:22;3.93;;;2.23;;
9449;SDS011;4763;48.370;10.874;2023-12-29T05:21:13;4.43;;;2.60;;
9449;SDS011;4763;48.370;10.874;2023-12-29T05:24:02;4.83;;;2.90;;
9449;SDS011;4763;48.370;10.874;2023-12-29T05:26:50;4.10;;;2.57;;
9449;SDS011;4763;48.370;10.874;2023-12-29T05:29:38;4.83;;;2.20;;
9449;SDS011;4763;48.370;10.874;2023-12-29T05:32:25;3.53;;;2.60;;
9449;SDS011;4763;48.370;10.874;2023-12-29T05:35:12;3.53;;;2.13;;
9449;SDS011;4763;48.370;10.874;2023-12-29T05:37:59;4.10;;;3.33;;
9449;SDS011;4763;48.370;10.874;2023-12-29T05:40:46;5.87;;;3.10;;
9449;SDS011;4763;48.370;10.874;2023-12-29T05:43:33;5.87;;;2.73;;
9449;SDS011;4763;48.370;10.874;2023-12-29T05:46:22;6.30;;;2.40;;
9449;SDS011;4763;48.370;10.874;2023-12-29T05:49:09;3.73;;;2.53;;
9449;SDS011;4763;48.370;10.874;2023-12-29T05:51:56;4.17;;;2.77;;
9449;SDS011;4763;48.370;10.874;2023-12-29T05:54:43;3.43;;;2.60;;
9449;SDS011;4763;48.370;10.874;2023-12-29T05:57:30;3.97;;;2.60;;
9449;SDS011;4763;48.370;10.874;2023-12-29T06:00:17;6.17;;;2.63;;
9449;SDS011;4763;48.370;10.874;2023-12-29T06:03:05;4.50;;;2.50;;
9449;SDS011;4763;48.370;10.874;2023-12-29T06:05:53;3.73;;;2.67;;
9449;SDS011;4763;48.370;10.874;2023-12-29T06:08:40;2.90;;;2.23;;
9449;SDS011;4763;48.370;10.874;2023-12-29T06:11:27;3.30;;;2.43;;
9449;SDS011;4763;48.370;10.874;2023-12-29T06:14:14;3.93;;;2.47;;
9449;SDS011;4763;48.370;10.874;2023-12-29T06:17:01;3.23;;;2.80;;
9449;SDS011;4763;48.370;10.874;2023-12-29T06:19:50;3.00;;;2.63;;
9449;SDS011;4763;48.370;10.874;2023-12-29T06:22:38;4.10;;;2.83;;
9449;SDS011;4763;48.370;10.874;2023-12-29T06:25:26;4.53;;;2.77;;
9449;SDS011;4763;48.370;10.874;2023-12-29T06:28:13;3.33;;;2.50;;
9449;SDS011;4763;48.370;10.874;2023-12-29T06:31:00;3.47;;;2.10;;
9449;SDS011;4763;48.370;10.874;2023-12-29T06:33:49;3.40;;;2.40;;
9449;SDS011;4763;48.370;10.874;2023-12-29T06:36:37;4.37;;;2.73;;
9449;SDS011;4763;48.370;10.874;2023-12-29T06:39:24;3.63;;;2.60;;
9449;SDS011;4763;48.370;10.874;2023-12-29T06:42:11;3.40;;;2.87;;
9449;SDS011;4763;48.370;10.874;2023-12-29T06:44:58;2.60;;;2.30;;
9449;SDS011;4763;48.370;10.874;2023-12-29T06:47:45;3.58;;;2.80;;
9449;SDS011;4763;48.370;10.874;2023-12-29T06:50:32;2.83;;;2.20;;
9449;SDS011;4763;48.370;10.874;2023-12-29T06:53:20;2.47;;;2.23;;
9449;SDS011;4763;48.370;10.874;2023-12-29T06:56:11;2.73;;;2.30;;
9449;SDS011;4763;48.370;10.874;2023-12-29T06:58:59;3.63;;;2.90;;
9449;SDS011;4763;48.370;10.874;2023-12-29T07:01:46;4.37;;;2.27;;
9449;SDS011;4763;48.370;10.874;2023-12-29T07:04:33;5.33;;;2.57;;
9449;SDS011;4763;48.370;10.874;2023-12-29T07:07:20;3.77;;;2.80;;
9449;SDS011;4763;48.370;10.874;2023-12-29T07:10:11;3.00;;;2.37;;
9449;SDS011;4763;48.370;10.874;2023-12-29T07:12:59;2.90;;;2.30;;
9449;SDS011;4763;48.370;10.874;2023-12-29T07:15:46;3.50;;;2.03;;
9449;SDS011;4763;48.370;10.874;2023-12-29T07:18:33;4.07;;;2.80;;
9449;SDS011;4763;48.370;10.874;2023-12-29T07:21:20;3.10;;;2.27;;
9449;SDS011;4763;48.370;10.874;2023-12-29T07:24:08;4.00;;;2.70;;
9449;SDS011;4763;48.370;10.874;2023-12-29T07:26:56;2.43;;;2.20;;
9449;SDS011;4763;48.370;10.874;2023-12-29T07:29:43;4.57;;;2.53;;
9449;SDS011;4763;48.370;10.874;2023-12-29T07:32:30;2.57;;;2.10;;
9449;SDS011;4763;48.370;10.874;2023-12-29T07:35:17;2.90;;;2.30;;
9449;SDS011;4763;48.370;10.874;2023-12-29T07:38:05;3.53;;;2.37;;
9449;SDS011;4763;48.370;10.874;2023-12-29T07:40:52;7.43;;;2.83;;
9449;SDS011;4763;48.370;10.874;2023-12-29T07:43:40;2.70;;;2.30;;
9449;SDS011;4763;48.370;10.874;2023-12-29T07:46:27;4.20;;;2.57;;
9449;SDS011;4763;48.370;10.874;2023-12-29T07:49:14;3.27;;;2.57;;
9449;SDS011;4763;48.370;10.874;2023-12-29T07:52:01;3.67;;;2.70;;
9449;SDS011;4763;48.370;10.874;2023-12-29T07:54:48;2.80;;;2.40;;
9449;SDS011;4763;48.370;10.874;2023-12-29T07:57:35;3.47;;;2.30;;
9449;SDS011;4763;48.370;10.874;2023-12-29T08:00:24;3.70;;;2.50;;
9449;SDS011;4763;48.370;10.874;2023-12-29T08:03:12;3.53;;;2.57;;
9449;SDS011;4763;48.370;10.874;2023-12-29T08:05:59;2.90;;;1.93;;
9449;SDS011;4763;48.370;10.874;2023-12-29T08:08:46;3.17;;;2.40;;
9449;SDS011;4763;48.370;10.874;2023-12-29T08:11:33;3.03;;;2.07;;
9449;SDS011;4763;48.370;10.874;2023-12-29T08:14:20;3.53;;;2.27;;
9449;SDS011;4763;48.370;10.874;2023-12-29T08:17:08;3.33;;;2.70;;
9449;SDS011;4763;48.370;10.874;2023-12-29T08:19:55;5.03;;;2.10;;
9449;SDS011;4763;48.370;10.874;2023-12-29T08:22:42;3.10;;;2.20;;
9449;SDS011;4763;48.370;10.874;2023-12-29T08:25:29;2.60;;;2.40;;
9449;SDS011;4763;48.370;10.874;2023-12-29T08:28:16;2.63;;;2.07;;
9449;SDS011;4763;48.370;10.874;2023-12-29T08:31:03;3.47;;;2.90;;
9449;SDS011;4763;48.370;10.874;2023-12-29T08:33:52;4.03;;;2.50;;
9449;SDS011;4763;48.370;10.874;2023-12-29T08:36:39;3.40;;;2.30;;
9449;SDS011;4763;48.370;10.874;2023-12-29T08:39:26;4.33;;;2.07;;
9449;SDS011;4763;48.370;10.874;2023-12-29T08:42:13;3.00;;;2.27;;
9449;SDS011;4763;48.370;10.874;2023-12-29T08:45:00;5.33;;;2.33;;
9449;SDS011;4763;48.370;10.874;2023-12-29T08:47:48;4.23;;;2.10;;
9449;SDS011;4763;48.370;10.874;2023-12-29T08:50:36;3.27;;;2.27;;
9449;SDS011;4763;48.370;10.874;2023-12-29T08:53:23;4.90;;;2.07;;
9449;SDS011;4763;48.370;10.874;2023-12-29T08:56:11;2.67;;;1.80;;
9449;SDS011;4763;48.370;10.874;2023-12-29T08:58:59;2.37;;;2.03;;
9449;SDS011;4763;48.370;10.874;2023-12-29T09:01:46;2.70;;;2.03;;
9449;SDS011;4763;48.370;10.874;2023-12-29T09:04:33;2.73;;;2.27;;
9449;SDS011;4763;48.370;10.874;2023-12-29T09:07:22;2.73;;;2.03;;
9449;SDS011;4763;48.370;10.874;2023-12-29T09:10:09;2.20;;;1.90;;
9449;SDS011;4763;48.370;10.874;2023-12-29T09:12:58;3.47;;;2.13;;
9449;SDS011;4763;48.370;10.874;2023-12-29T09:15:45;3.57;;;2.20;;
9449;SDS011;4763;48.370;10.874;2023-12-29T09:18:32;1.90;;;1.70;;
9449;SDS011;4763;48.370;10.874;2023-12-29T09:21:19;4.43;;;1.83;;
9449;SDS011;4763;48.370;10.874;2023-12-29T09:24:07;3.00;;;2.30;;
9449;SDS011;4763;48.370;10.874;2023-12-29T09:26:54;3.30;;;1.93;;
9449;SDS011;4763;48.370;10.874;2023-12-29T09:29:41;3.00;;;1.90;;
9449;SDS011;4763;48.370;10.874;2023-12-29T09:32:28;3.43;;;2.07;;
9449;SDS011;4763;48.370;10.874;2023-12-29T09:35:15;4.83;;;2.27;;
9449;SDS011;4763;48.370;10.874;2023-12-29T09:38:02;3.03;;;1.87;;
9449;SDS011;4763;48.370;10.874;2023-12-29T09:40:52;2.80;;;1.63;;
9449;SDS011;4763;48.370;10.874;2023-12-29T09:43:39;2.13;;;1.77;;
9449;SDS011;4763;48.370;10.874;2023-12-29T09:46:27;2.77;;;1.90;;
9449;SDS011;4763;48.370;10.874;2023-12-29T09:49:18;1.93;;;1.80;;
9449;SDS011;4763;48.370;10.874;2023-12-29T09:52:06;1.83;;;1.73;;
9449;SDS011;4763;48.370;10.874;2023-12-29T09:54:56;2.80;;;2.20;;
9449;SDS011;4763;48.370;10.874;2023-12-29T09:57:45;2.53;;;2.00;;
9449;SDS011;4763;48.370;10.874;2023-12-29T10:00:33;1.73;;;1.53;;
9449;SDS011;4763;48.370;10.874;2023-12-29T10:03:20;2.33;;;1.90;;
9449;SDS011;4763;48.370;10.874;2023-12-29T10:06:07;2.00;;;1.63;;
9449;SDS011;4763;48.370;10.874;2023-12-29T10:08:59;2.30;;;1.60;;
9449;SDS011;4763;48.370;10.874;2023-12-29T10:11:50;1.70;;;1.60;;
9449;SDS011;4763;48.370;10.874;2023-12-29T10:14:41;2.23;;;1.57;;
9449;SDS011;4763;48.370;10.874;2023-12-29T10:17:36;2.40;;;1.80;;
9449;SDS011;4763;48.370;10.874;2023-12-29T10:20:36;1.73;;;1.53;;
9449;SDS011;4763;48.370;10.874;2023-12-29T10:23:32;2.40;;;1.70;;
9449;SDS011;4763;48.370;10.874;2023-12-29T10:26:23;2.00;;;1.70;;
9449;SDS011;4763;48.370;10.874;2023-12-29T10:29:11;2.07;;;1.87;;
9449;SDS011;4763;48.370;10.874;2023-12-29T10:32:00;2.47;;;1.77;;
9449;SDS011;4763;48.370;10.874;2023-12-29T10:34:47;3.43;;;2.07;;
9449;SDS011;4763;48.370;10.874;2023-12-29T10:37:34;1.60;;;1.50;;
9449;SDS011;4763;48.370;10.874;2023-12-29T10:40:21;3.40;;;1.60;;
9449;SDS011;4763;48.370;10.874;2023-12-29T10:43:08;2.63;;;1.93;;
9449;SDS011;4763;48.370;10.874;2023-12-29T10:46:03;2.67;;;1.93;;
9449;SDS011;4763;48.370;10.874;2023-12-29T10:48:54;3.10;;;2.10;;
9449;SDS011;4763;48.370;10.874;2023-12-29T10:51:53;1.87;;;1.67;;
9449;SDS011;4763;48.370;10.874;2023-12-29T10:54:40;2.27;;;1.90;;
9449;SDS011;4763;48.370;10.874;2023-12-29T10:57:27;2.53;;;1.60;;
9449;SDS011;4763;48.370;10.874;2023-12-29T11:00:15;5.27;;;2.07;;
9449;SDS011;4763;48.370;10.874;2023-12-29T11:03:02;2.57;;;2.00;;
9449;SDS011;4763;48.370;10.874;2023-12-29T11:05:51;2.20;;;1.60;;
9449;SDS011;4763;48.370;10.874;2023-12-29T11:08:46;4.57;;;1.93;;
9449;SDS011;4763;48.370;10.874;2023-12-29T11:11:33;1.90;;;1.60;;
9449;SDS011;4763;48.370;10.874;2023-12-29T11:14:22;3.53;;;1.80;;
9449;SDS011;4763;48.370;10.874;2023-12-29T11:17:09;2.67;;;1.83;;
9449;SDS011;4763;48.370;10.874;2023-12-29T11:19:59;2.30;;;1.90;;
9449;SDS011;4763;48.370;10.874;2023-12-29T11:22:48;2.47;;;1.90;;
9449;SDS011;4763;48.370;10.874;2023-12-29T11:25:35;1.77;;;1.67;;
9449;SDS011;4763;48.370;10.874;2023-12-29T11:28:23;2.77;;;1.73;;
9449;SDS011;4763;48.370;10.874;2023-12-29T11:31:11;2.00;;;1.80;;
9449;SDS011;4763;48.370;10.874;2023-12-29T11:34:00;2.43;;;1.97;;
9449;SDS011;4763;48.370;10.874;2023-12-29T11:36:55;6.83;;;1.97;;
9449;SDS011;4763;48.370;10.874;2023-12-29T11:39:48;2.50;;;1.67;;
9449;SDS011;4763;48.370;10.874;2023-12-29T11:42:41;3.23;;;2.00;;
9449;SDS011;4763;48.370;10.874;2023-12-29T11:45:33;2.47;;;1.70;;
9449;SDS011;4763;48.370;10.874;2023-12-29T11:51:41;3.17;;;1.70;;
9449;SDS011;4763;48.370;10.874;2023-12-29T11:54:29;4.03;;;2.43;;
9449;SDS011;4763;48.370;10.874;2023-12-29T11:57:31;4.30;;;2.50;;
9449;SDS011;4763;48.370;10.874;2023-12-29T12:00:18;5.17;;;3.27;;
9449;SDS011;4763;48.370;10.874;2023-12-29T12:03:12;3.60;;;2.33;;
9449;SDS011;4763;48.370;10.874;2023-12-29T12:06:01;2.07;;;1.70;;
9449;SDS011;4763;48.370;10.874;2023-12-29T12:08:49;2.17;;;1.87;;
9449;SDS011;4763;48.370;10.874;2023-12-29T12:12:02;2.50;;;1.70;;
9449;SDS011;4763;48.370;10.874;2023-12-29T12:14:52;3.00;;;2.00;;
9449;SDS011;4763;48.370;10.874;2023-12-29T12:17:40;1.93;;;1.63;;
9449;SDS011;4763;48.370;10.874;2023-12-29T12:20:28;2.67;;;1.90;;
9449;SDS011;4763;48.370;10.874;2023-12-29T12:23:16;2.17;;;1.80;;
9449;SDS011;4763;48.370;10.874;2023-12-29T12:33:39;3.10;;;2.00;;
9449;SDS011;4763;48.370;10.874;2023-12-29T12:43:54;1.60;;;1.50;;
9449;SDS011;4763;48.370;10.874;2023-12-29T12:46:49;1.70;;;1.60;;
9449;SDS011;4763;48.370;10.874;2023-12-29T12:49:40;3.10;;;1.90;;
9449;SDS011;4763;48.370;10.874;2023-12-29T12:52:30;2.03;;;1.50;;
9449;SDS011;4763;48.370;10.874;2023-12-29T12:55:18;1.80;;;1.50;;
9449;SDS011;4763;48.370;10.874;2023-12-29T12:58:05;1.87;;;1.53;;
9449;SDS011;4763;48.370;10.874;2023-12-29T13:00:53;1.80;;;1.50;;
9449;SDS011;4763;48.370;10.874;2023-12-29T13:03:43;2.30;;;1.33;;
9449;SDS011;4763;48.370;10.874;2023-12-29T13:06:32;2.73;;;1.70;;
9449;SDS011;4763;48.370;10.874;2023-12-29T13:09:20;2.00;;;1.60;;
9449;SDS011;4763;48.370;10.874;2023-12-29T13:12:08;2.37;;;1.40;;
9449;SDS011;4763;48.370;10.874;2023-12-29T13:15:04;1.77;;;1.60;;
9449;SDS011;4763;48.370;10.874;2023-12-29T13:17:52;2.63;;;1.70;;
9449;SDS011;4763;48.370;10.874;2023-12-29T13:20:45;1.97;;;1.57;;
9449;SDS011;4763;48.370;10.874;2023-12-29T13:23:34;2.00;;;1.40;;
9449;SDS011;4763;48.370;10.874;2023-12-29T13:26:22;1.23;;;1.13;;
9449;SDS011;4763;48.370;10.874;2023-12-29T13:29:12;2.33;;;1.40;;
9449;SDS011;4763;48.370;10.874;2023-12-29T13:32:00;3.53;;;1.63;;
9449;SDS011;4763;48.370;10.874;2023-12-29T13:34:53;2.90;;;1.40;;
9449;SDS011;4763;48.370;10.874;2023-12-29T13:37:49;3.10;;;1.60;;
9449;SDS011;4763;48.370;10.874;2023-12-29T13:40:51;2.37;;;1.70;;
9449;SDS011;4763;48.370;10.874;2023-12-29T13:43:42;1.73;;;1.63;;
9449;SDS011;4763;48.370;10.874;2023-12-29T13:46:31;3.23;;;1.90;;
9449;SDS011;4763;48.370;10.874;2023-12-29T13:49:19;1.80;;;1.60;;
9449;SDS011;4763;48.370;10.874;2023-12-29T13:52:06;1.83;;;1.50;;
9449;SDS011;4763;48.370;10.874;2023-12-29T13:54:53;1.30;;;1.20;;
9449;SDS011;4763;48.370;10.874;2023-12-29T13:57:42;2.07;;;1.50;;
9449;SDS011;4763;48.370;10.874;2023-12-29T14:00:29;1.90;;;1.40;;
9449;SDS011;4763;48.370;10.874;2023-12-29T14:03:22;4.67;;;1.90;;
9449;SDS011;4763;48.370;10.874;2023-12-29T14:06:18;2.47;;;1.60;;
9449;SDS011;4763;48.370;10.874;2023-12-29T14:09:13;2.83;;;1.40;;
9449;SDS011;4763;48.370;10.874;2023-12-29T14:12:02;2.57;;;1.63;;
9449;SDS011;4763;48.370;10.874;2023-12-29T14:14:50;1.90;;;1.30;;
9449;SDS011;4763;48.370;10.874;2023-12-29T14:17:38;2.20;;;1.60;;
9449;SDS011;4763;48.370;10.874;2023-12-29T14:20:32;2.00;;;1.50;;
9449;SDS011;4763;48.370;10.874;2023-12-29T14:23:20;1.50;;;1.30;;
9449;SDS011;4763;48.370;10.874;2023-12-29T14:26:07;2.13;;;1.57;;
9449;SDS011;4763;48.370;10.874;2023-12-29T14:29:02;1.43;;;1.23;;
9449;SDS011;4763;48.370;10.874;2023-12-29T14:31:51;1.50;;;1.40;;
9449;SDS011;4763;48.370;10.874;2023-12-29T14:34:40;1.20;;;1.10;;
9449;SDS011;4763;48.370;10.874;2023-12-29T14:37:28;1.10;;;1.00;;
9449;SDS011;4763;48.370;10.874;2023-12-29T14:40:15;2.23;;;1.37;;
9449;SDS011;4763;48.370;10.874;2023-12-29T14:43:02;3.67;;;1.27;;
9449;SDS011;4763;48.370;10.874;2023-12-29T14:45:49;1.40;;;1.30;;
9449;SDS011;4763;48.370;10.874;2023-12-29T14:48:38;1.53;;;1.03;;
9449;SDS011;4763;48.370;10.874;2023-12-29T14:51:25;1.27;;;1.17;;
9449;SDS011;4763;48.370;10.874;2023-12-29T14:54:12;2.60;;;1.90;;
9449;SDS011;4763;48.370;10.874;2023-12-29T14:56:59;2.33;;;1.30;;
9449;SDS011;4763;48.370;10.874;2023-12-29T14:59:46;1.93;;;1.60;;
9449;SDS011;4763;48.370;10.874;2023-12-29T15:02:33;4.13;;;1.40;;
9449;SDS011;4763;48.370;10.874;2023-12-29T15:05:22;1.53;;;1.43;;
9449;SDS011;4763;48.370;10.874;2023-12-29T15:08:09;1.80;;;1.70;;
9449;SDS011;4763;48.370;10.874;2023-12-29T15:10:56;2.97;;;1.50;;
9449;SDS011;4763;48.370;10.874;2023-12-29T15:13:43;1.97;;;1.50;;
9449;SDS011;4763;48.370;10.874;2023-12-29T15:16:30;1.63;;;1.30;;
9449;SDS011;4763;48.370;10.874;2023-12-29T15:19:17;1.73;;;1.50;;
9449;SDS011;4763;48.370;10.874;2023-12-29T15:22:06;2.63;;;1.65;;
9449;SDS011;4763;48.370;10.874;2023-12-29T15:24:53;4.83;;;2.07;;
9449;SDS011;4763;48.370;10.874;2023-12-29T15:27:40;2.60;;;1.83;;
9449;SDS011;4763;48.370;10.874;2023-12-29T15:30:27;2.33;;;1.70;;
9449;SDS011;4763;48.370;10.874;2023-12-29T15:33:14;2.07;;;1.40;;
9449;SDS011;4763;48.370;10.874;2023-12-29T15:36:02;3.37;;;1.60;;
9449;SDS011;4763;48.370;10.874;2023-12-29T15:38:50;1.73;;;1.40;;
9449;SDS011;4763;48.370;10.874;2023-12-29T15:41:37;4.87;;;1.73;;
9449;SDS011;4763;48.370;10.874;2023-12-29T15:44:25;2.30;;;1.73;;
9449;SDS011;4763;48.370;10.874;2023-12-29T15:47:12;3.00;;;1.70;;
9449;SDS011;4763;48.370;10.874;2023-12-29T15:49:59;4.60;;;1.97;;
9449;SDS011;4763;48.370;10.874;2023-12-29T15:52:46;2.37;;;1.80;;
9449;SDS011;4763;48.370;10.874;2023-12-29T15:55:35;3.60;;;2.03;;
9449;SDS011;4763;48.370;10.874;2023-12-29T15:58:22;2.90;;;1.90;;
9449;SDS011;4763;48.370;10.874;2023-12-29T16:01:09;2.37;;;2.00;;
9449;SDS011;4763;48.370;10.874;2023-12-29T16:03:56;2.50;;;2.07;;
9449;SDS011;4763;48.370;10.874;2023-12-29T16:06:43;3.70;;;1.90;;
9449;SDS011;4763;48.370;10.874;2023-12-29T16:09:30;5.17;;;2.47;;
9449;SDS011;4763;48.370;10.874;2023-12-29T16:12:19;3.27;;;2.53;;
9449;SDS011;4763;48.370;10.874;2023-12-29T16:15:06;4.50;;;2.03;;
9449;SDS011;4763;48.370;10.874;2023-12-29T16:17:54;4.50;;;2.00;;
9449;SDS011;4763;48.370;10.874;2023-12-29T16:20:41;4.00;;;2.10;;
9449;SDS011;4763;48.370;10.874;2023-12-29T16:23:29;3.27;;;2.47;;
9449;SDS011;4763;48.370;10.874;2023-12-29T16:26:16;2.47;;;1.83;;
9449;SDS011;4763;48.370;10.874;2023-12-29T16:29:04;2.20;;;1.70;;
9449;SDS011;4763;48.370;10.874;2023-12-29T16:46:59;4.00;;;3.13;;
9449;SDS011;4763;48.370;10.874;2023-12-29T16:49:46;3.27;;;2.50;;
9449;SDS011;4763;48.370;10.874;2023-12-29T16:52:33;2.50;;;2.07;;
9449;SDS011;4763;48.370;10.874;2023-12-29T16:55:20;4.30;;;2.83;;
9449;SDS011;4763;48.370;10.874;2023-12-29T16:58:07;4.00;;;2.40;;
9449;SDS011;4763;48.370;10.874;2023-12-29T17:00:54;4.30;;;2.63;;
9449;SDS011;4763;48.370;10.874;2023-12-29T17:03:42;4.43;;;2.43;;
9449;SDS011;4763;48.370;10.874;2023-12-29T17:06:31;3.47;;;2.67;;
9449;SDS011;4763;48.370;10.874;2023-12-29T17:09:18;3.67;;;2.30;;
9449;SDS011;4763;48.370;10.874;2023-12-29T17:12:05;2.20;;;1.70;;
9449;SDS011;4763;48.370;10.874;2023-12-29T17:14:53;3.90;;;2.33;;
9449;SDS011;4763;48.370;10.874;2023-12-29T17:17:40;2.30;;;2.10;;
9449;SDS011;4763;48.370;10.874;2023-12-29T17:20:28;5.00;;;2.57;;
9449;SDS011;4763;48.370;10.874;2023-12-29T17:23:16;3.53;;;2.57;;
9449;SDS011;4763;48.370;10.874;2023-12-29T17:26:08;6.07;;;3.97;;
9449;SDS011;4763;48.370;10.874;2023-12-29T17:28:57;4.50;;;2.97;;
9449;SDS011;4763;48.370;10.874;2023-12-29T17:31:44;4.93;;;3.30;;
9449;SDS011;4763;48.370;10.874;2023-12-29T17:34:34;3.53;;;3.00;;
9449;SDS011;4763;48.370;10.874;2023-12-29T17:37:23;3.87;;;2.60;;
9449;SDS011;4763;48.370;10.874;2023-12-29T17:40:12;3.43;;;2.70;;
9449;SDS011;4763;48.370;10.874;2023-12-29T17:42:59;6.07;;;3.57;;